sensor_id;sensor_type;location;lat;lon;timestamp;pressure;altitude;pressure_sealevel;temperature
76007;BMP280;64699;0.000;0.000;2023-05-02T00:01:05;100612.69;;;16.08
76007;BMP280;64699;0.000;0.000;2023-05-02T00:03:30;100607.97;;;16.08
76007;BMP280;64699;0.000;0.000;2023-05-02T00:05:56;100607.22;;;16.08
76007;BMP280;64699;0.000;0.000;2023-05-02T00:08:21;100601.03;;;16.07
76007;BMP280;64699;0.000;0.000;2023-05-02T00:10:47;100598.78;;;16.06
76007;BMP280;64699;0.000;0.000;2023-05-02T00:13:13;100601.03;;;16.07
76007;BMP280;64699;0.000;0.000;2023-05-02T00:15:38;100596.25;;;16.08
76007;BMP280;64699;0.000;0.000;2023-05-02T00:18:03;100596.25;;;16.08
76007;BMP280;64699;0.000;0.000;2023-05-02T00:20:28;100594.78;;;16.07
76007;BMP280;64699;0.000;0.000;2023-05-02T00:22:54;100578.34;;;16.07
76007;BMP280;64699;0.000;0.000;2023-05-02T00:25:19;100579.81;;;16.08
76007;BMP280;64699;0.000;0.000;2023-05-02T00:27:45;100575.63;;;16.07
76007;BMP280;64699;0.000;0.000;2023-05-02T00:30:10;100577.63;;;16.06
76007;BMP280;64699;0.000;0.000;2023-05-02T00:32:36;100581.09;;;16.07
76007;BMP280;64699;0.000;0.000;2023-05-02T00:35:02;100577.63;;;16.06
76007;BMP280;64699;0.000;0.000;2023-05-02T00:37:27;100568.63;;;16.06
76007;BMP280;64699;0.000;0.000;2023-05-02T00:39:52;100576.88;;;16.06
76007;BMP280;64699;0.000;0.000;2023-05-02T00:42:17;100571.38;;;16.06
76007;BMP280;64699;0.000;0.000;2023-05-02T00:44:43;100571.38;;;16.06
76007;BMP280;64699;0.000;0.000;2023-05-02T00:47:08;100565.16;;;16.05
76007;BMP280;64699;0.000;0.000;2023-05-02T00:49:33;100557.69;;;16.06
76007;BMP280;64699;0.000;0.000;2023-05-02T00:51:59;100559.69;;;16.05
76007;BMP280;64699;0.000;0.000;2023-05-02T00:54:24;100553.44;;;16.05
76007;BMP280;64699;0.000;0.000;2023-05-02T00:56:49;100554.22;;;16.05
76007;BMP280;64699;0.000;0.000;2023-05-02T00:59:16;100547.97;;;16.05
76007;BMP280;64699;0.000;0.000;2023-05-02T01:04:10;100551.97;;;16.04
76007;BMP280;64699;0.000;0.000;2023-05-02T01:09:13;100553.44;;;16.05
76007;BMP280;64699;0.000;0.000;2023-05-02T01:11:51;100550.72;;;16.05
76007;BMP280;64699;0.000;0.000;2023-05-02T01:14:17;100546.72;;;16.06
76007;BMP280;64699;0.000;0.000;2023-05-02T01:16:42;100546.00;;;16.05
76007;BMP280;64699;0.000;0.000;2023-05-02T01:19:18;100553.44;;;16.05
76007;BMP280;64699;0.000;0.000;2023-05-02T01:21:46;100550.72;;;16.05
76007;BMP280;64699;0.000;0.000;2023-05-02T01:24:18;100553.44;;;16.05
76007;BMP280;64699;0.000;0.000;2023-05-02T01:29:47;100554.94;;;16.06
76007;BMP280;64699;0.000;0.000;2023-05-02T01:32:14;100554.22;;;16.05
76007;BMP280;64699;0.000;0.000;2023-05-02T01:34:39;100541.72;;;16.04
76007;BMP280;64699;0.000;0.000;2023-05-02T01:37:07;100548.72;;;16.05
76007;BMP280;64699;0.000;0.000;2023-05-02T01:39:34;100546.72;;;16.06
76007;BMP280;64699;0.000;0.000;2023-05-02T01:42:02;100536.25;;;16.04
76007;BMP280;64699;0.000;0.000;2023-05-02T01:44:29;100530.78;;;16.04
76007;BMP280;64699;0.000;0.000;2023-05-02T01:46:54;100532.28;;;16.05
76007;BMP280;64699;0.000;0.000;2023-05-02T01:49:20;100532.78;;;16.04
76007;BMP280;64699;0.000;0.000;2023-05-02T01:51:47;100528.03;;;16.04
76007;BMP280;64699;0.000;0.000;2023-05-02T01:54:13;100524.06;;;16.05
76007;BMP280;64699;0.000;0.000;2023-05-02T01:56:39;100519.06;;;16.04
76007;BMP280;64699;0.000;0.000;2023-05-02T01:59:07;100518.31;;;16.03
76007;BMP280;64699;0.000;0.000;2023-05-02T02:01:33;100517.06;;;16.04
76007;BMP280;64699;0.000;0.000;2023-05-02T02:03:59;100508.13;;;16.04
76007;BMP280;64699;0.000;0.000;2023-05-02T02:06:24;100508.13;;;16.04
76007;BMP280;64699;0.000;0.000;2023-05-02T02:08:50;100510.09;;;16.03
76007;BMP280;64699;0.000;0.000;2023-05-02T02:11:20;100509.38;;;16.03
76007;BMP280;64699;0.000;0.000;2023-05-02T02:13:48;100502.63;;;16.04
76007;BMP280;64699;0.000;0.000;2023-05-02T02:16:24;100509.38;;;16.03
76007;BMP280;64699;0.000;0.000;2023-05-02T02:18:53;100506.63;;;16.03
76007;BMP280;64699;0.000;0.000;2023-05-02T02:21:18;100505.38;;;16.04
76007;BMP280;64699;0.000;0.000;2023-05-02T02:23:46;100499.91;;;16.04
76007;BMP280;64699;0.000;0.000;2023-05-02T02:26:11;100499.91;;;16.04
76007;BMP280;64699;0.000;0.000;2023-05-02T02:28:37;100494.94;;;16.02
76007;BMP280;64699;0.000;0.000;2023-05-02T02:31:03;100496.41;;;16.03
76007;BMP280;64699;0.000;0.000;2023-05-02T02:33:29;100480.72;;;16.04
76007;BMP280;64699;0.000;0.000;2023-05-02T02:35:57;100483.44;;;16.04
76007;BMP280;64699;0.000;0.000;2023-05-02T02:38:33;100483.44;;;16.04
76007;BMP280;64699;0.000;0.000;2023-05-02T02:41:02;100485.44;;;16.03
76007;BMP280;64699;0.000;0.000;2023-05-02T02:48:56;100490.66;;;16.07
76007;BMP280;64699;0.000;0.000;2023-05-02T02:51:29;100493.63;;;16.09
76007;BMP280;64699;0.000;0.000;2023-05-02T02:53:59;100496.63;;;16.11
76007;BMP280;64699;0.000;0.000;2023-05-02T02:56:35;100495.84;;;16.10
76007;BMP280;64699;0.000;0.000;2023-05-02T02:59:05;100483.66;;;16.11
76007;BMP280;64699;0.000;0.000;2023-05-02T03:01:33;100493.38;;;16.12
76007;BMP280;64699;0.000;0.000;2023-05-02T03:04:00;100494.09;;;16.13
76007;BMP280;64699;0.000;0.000;2023-05-02T03:06:27;100479.88;;;16.14
76007;BMP280;64699;0.000;0.000;2023-05-02T03:08:53;100479.13;;;16.14
76007;BMP280;64699;0.000;0.000;2023-05-02T03:11:18;100477.88;;;16.15
76007;BMP280;64699;0.000;0.000;2023-05-02T03:13:43;100476.63;;;16.16
76007;BMP280;64699;0.000;0.000;2023-05-02T03:18:37;100472.66;;;16.17
76007;BMP280;64699;0.000;0.000;2023-05-02T03:21:03;100478.16;;;16.17
76007;BMP280;64699;0.000;0.000;2023-05-02T03:23:28;100474.66;;;16.16
76007;BMP280;64699;0.000;0.000;2023-05-02T03:25:53;100480.34;;;16.18
76007;BMP280;64699;0.000;0.000;2023-05-02T03:28:19;100480.34;;;16.18
76007;BMP280;64699;0.000;0.000;2023-05-02T03:30:44;100479.09;;;16.19
76007;BMP280;64699;0.000;0.000;2023-05-02T03:33:09;100483.84;;;16.19
76007;BMP280;64699;0.000;0.000;2023-05-02T03:35:35;100479.63;;;16.18
76007;BMP280;64699;0.000;0.000;2023-05-02T03:38:00;100481.09;;;16.19
76007;BMP280;64699;0.000;0.000;2023-05-02T03:40:26;100476.13;;;16.17
76007;BMP280;64699;0.000;0.000;2023-05-02T03:42:51;100477.59;;;16.18
76007;BMP280;64699;0.000;0.000;2023-05-02T03:45:16;100479.63;;;16.18
76007;BMP280;64699;0.000;0.000;2023-05-02T03:47:42;100482.38;;;16.18
76007;BMP280;64699;0.000;0.000;2023-05-02T03:50:07;100486.56;;;16.19
76007;BMP280;64699;0.000;0.000;2023-05-02T03:52:32;100490.59;;;16.18
76007;BMP280;64699;0.000;0.000;2023-05-02T03:54:59;100491.28;;;16.18
76007;BMP280;64699;0.000;0.000;2023-05-02T03:57:24;100481.81;;;16.19
76007;BMP280;64699;0.000;0.000;2023-05-02T03:59:49;100485.13;;;16.18
76007;BMP280;64699;0.000;0.000;2023-05-02T04:02:14;100491.28;;;16.18
76007;BMP280;64699;0.000;0.000;2023-05-02T04:04:40;100486.56;;;16.19
76007;BMP280;64699;0.000;0.000;2023-05-02T04:07:05;100500.81;;;16.17
76007;BMP280;64699;0.000;0.000;2023-05-02T04:09:32;100501.56;;;16.18
76007;BMP280;64699;0.000;0.000;2023-05-02T04:11:57;100487.84;;;16.18
76007;BMP280;64699;0.000;0.000;2023-05-02T04:14:22;100493.34;;;16.18
76007;BMP280;64699;0.000;0.000;2023-05-02T04:16:48;100497.34;;;16.17
76007;BMP280;64699;0.000;0.000;2023-05-02T04:19:14;100496.06;;;16.18
76007;BMP280;64699;0.000;0.000;2023-05-02T04:21:39;100501.56;;;16.18
76007;BMP280;64699;0.000;0.000;2023-05-02T04:24:04;100500.06;;;16.17
76007;BMP280;64699;0.000;0.000;2023-05-02T04:26:29;100494.59;;;16.17
76007;BMP280;64699;0.000;0.000;2023-05-02T04:28:55;100507.03;;;16.18
76007;BMP280;64699;0.000;0.000;2023-05-02T04:31:20;100502.25;;;16.18
76007;BMP280;64699;0.000;0.000;2023-05-02T04:33:45;100504.31;;;16.18
76007;BMP280;64699;0.000;0.000;2023-05-02T04:36:12;100502.25;;;16.18
76007;BMP280;64699;0.000;0.000;2023-05-02T04:38:38;100492.56;;;16.17
76007;BMP280;64699;0.000;0.000;2023-05-02T04:41:03;100489.84;;;16.17
76007;BMP280;64699;0.000;0.000;2023-05-02T04:43:28;100484.34;;;16.17
76007;BMP280;64699;0.000;0.000;2023-05-02T04:45:54;100486.38;;;16.17
76007;BMP280;64699;0.000;0.000;2023-05-02T04:48:20;100489.84;;;16.17
76007;BMP280;64699;0.000;0.000;2023-05-02T04:50:45;100500.06;;;16.17
76007;BMP280;64699;0.000;0.000;2023-05-02T04:53:11;100500.06;;;16.17
76007;BMP280;64699;0.000;0.000;2023-05-02T04:55:36;100493.34;;;16.18
76007;BMP280;64699;0.000;0.000;2023-05-02T04:58:01;100498.06;;;16.17
76007;BMP280;64699;0.000;0.000;2023-05-02T05:00:27;100494.59;;;16.17
76007;BMP280;64699;0.000;0.000;2023-05-02T05:02:52;100501.56;;;16.18
76007;BMP280;64699;0.000;0.000;2023-05-02T05:05:18;100503.53;;;16.17
76007;BMP280;64699;0.000;0.000;2023-05-02T05:07:43;100500.06;;;16.17
76007;BMP280;64699;0.000;0.000;2023-05-02T05:10:09;100493.06;;;16.16
76007;BMP280;64699;0.000;0.000;2023-05-02T05:12:35;100498.56;;;16.16
76007;BMP280;64699;0.000;0.000;2023-05-02T05:15:00;100491.84;;;16.17
76007;BMP280;64699;0.000;0.000;2023-05-02T05:17:25;100493.06;;;16.16
76007;BMP280;64699;0.000;0.000;2023-05-02T05:19:51;100490.59;;;16.18
76007;BMP280;64699;0.000;0.000;2023-05-02T05:22:16;100488.34;;;16.16
76007;BMP280;64699;0.000;0.000;2023-05-02T05:24:41;100482.09;;;16.16
76007;BMP280;64699;0.000;0.000;2023-05-02T05:27:07;100489.09;;;16.17
76007;BMP280;64699;0.000;0.000;2023-05-02T05:29:32;100480.13;;;16.16
76007;BMP280;64699;0.000;0.000;2023-05-02T05:31:57;100484.84;;;16.16
76007;BMP280;64699;0.000;0.000;2023-05-02T05:34:23;100498.56;;;16.16
76007;BMP280;64699;0.000;0.000;2023-05-02T05:36:49;100480.88;;;16.17
76007;BMP280;64699;0.000;0.000;2023-05-02T05:39:14;100484.84;;;16.16
76007;BMP280;64699;0.000;0.000;2023-05-02T05:41:39;100484.84;;;16.16
76007;BMP280;64699;0.000;0.000;2023-05-02T05:44:04;100487.59;;;16.16
76007;BMP280;64699;0.000;0.000;2023-05-02T05:46:29;100481.38;;;16.15
76007;BMP280;64699;0.000;0.000;2023-05-02T05:48:55;100487.59;;;16.16
76007;BMP280;64699;0.000;0.000;2023-05-02T05:51:20;100481.38;;;16.15
76007;BMP280;64699;0.000;0.000;2023-05-02T05:53:46;100486.38;;;16.17
76007;BMP280;64699;0.000;0.000;2023-05-02T05:56:11;100482.09;;;16.16
76007;BMP280;64699;0.000;0.000;2023-05-02T05:58:37;100482.88;;;16.16
76007;BMP280;64699;0.000;0.000;2023-05-02T06:01:02;100476.63;;;16.16
76007;BMP280;64699;0.000;0.000;2023-05-02T06:03:28;100475.91;;;16.15
76007;BMP280;64699;0.000;0.000;2023-05-02T06:05:53;100471.16;;;16.16
76007;BMP280;64699;0.000;0.000;2023-05-02T06:08:18;100471.16;;;16.16
76007;BMP280;64699;0.000;0.000;2023-05-02T06:10:45;100473.16;;;16.15
76007;BMP280;64699;0.000;0.000;2023-05-02T06:13:11;100473.88;;;16.16
76007;BMP280;64699;0.000;0.000;2023-05-02T06:15:36;100469.66;;;16.15
76007;BMP280;64699;0.000;0.000;2023-05-02T06:18:01;100473.88;;;16.16
76007;BMP280;64699;0.000;0.000;2023-05-02T06:20:26;100482.09;;;16.16
76007;BMP280;64699;0.000;0.000;2023-05-02T06:22:51;100480.63;;;16.15
76007;BMP280;64699;0.000;0.000;2023-05-02T06:25:16;100471.16;;;16.16
76007;BMP280;64699;0.000;0.000;2023-05-02T06:27:42;100482.09;;;16.16
76007;BMP280;64699;0.000;0.000;2023-05-02T06:30:07;100476.63;;;16.16
76007;BMP280;64699;0.000;0.000;2023-05-02T06:32:32;100486.09;;;16.15
76007;BMP280;64699;0.000;0.000;2023-05-02T06:34:58;100478.63;;;16.15
76007;BMP280;64699;0.000;0.000;2023-05-02T06:37:23;100486.09;;;16.15
76007;BMP280;64699;0.000;0.000;2023-05-02T06:39:48;100484.13;;;16.15
76007;BMP280;64699;0.000;0.000;2023-05-02T06:42:13;100480.63;;;16.15
76007;BMP280;64699;0.000;0.000;2023-05-02T06:44:38;100479.88;;;16.14
76007;BMP280;64699;0.000;0.000;2023-05-02T06:47:04;100491.59;;;16.15
76007;BMP280;64699;0.000;0.000;2023-05-02T06:49:30;100486.09;;;16.15
76007;BMP280;64699;0.000;0.000;2023-05-02T06:51:55;100488.84;;;16.15
76007;BMP280;64699;0.000;0.000;2023-05-02T06:54:20;100481.88;;;16.14
76007;BMP280;64699;0.000;0.000;2023-05-02T06:56:46;100485.38;;;16.14
76007;BMP280;64699;0.000;0.000;2023-05-02T06:59:11;100495.56;;;16.14
76007;BMP280;64699;0.000;0.000;2023-05-02T07:01:36;100490.09;;;16.14
76007;BMP280;64699;0.000;0.000;2023-05-02T07:04:02;100501.81;;;16.14
76007;BMP280;64699;0.000;0.000;2023-05-02T07:06:29;100495.56;;;16.14
76007;BMP280;64699;0.000;0.000;2023-05-02T07:08:55;100506.53;;;16.14
76007;BMP280;64699;0.000;0.000;2023-05-02T07:11:20;100501.06;;;16.14
76007;BMP280;64699;0.000;0.000;2023-05-02T07:13:47;100491.59;;;16.15
76007;BMP280;64699;0.000;0.000;2023-05-02T07:16:12;100495.56;;;16.14
76007;BMP280;64699;0.000;0.000;2023-05-02T07:18:38;100489.38;;;16.13
76007;BMP280;64699;0.000;0.000;2023-05-02T07:21:03;100490.84;;;16.14
76007;BMP280;64699;0.000;0.000;2023-05-02T07:23:28;100486.09;;;16.15
76007;BMP280;64699;0.000;0.000;2023-05-02T07:25:53;100479.13;;;16.14
76007;BMP280;64699;0.000;0.000;2023-05-02T07:28:18;100483.13;;;16.13
76007;BMP280;64699;0.000;0.000;2023-05-02T07:30:44;100484.63;;;16.14
76007;BMP280;64699;0.000;0.000;2023-05-02T07:33:09;100489.38;;;16.13
76007;BMP280;64699;0.000;0.000;2023-05-02T07:35:34;100487.34;;;16.14
76007;BMP280;64699;0.000;0.000;2023-05-02T07:37:59;100495.56;;;16.14
76007;BMP280;64699;0.000;0.000;2023-05-02T07:40:25;100492.84;;;16.14
76007;BMP280;64699;0.000;0.000;2023-05-02T07:42:50;100497.59;;;16.13
76007;BMP280;64699;0.000;0.000;2023-05-02T07:45:15;100489.38;;;16.13
76007;BMP280;64699;0.000;0.000;2023-05-02T07:47:40;100496.81;;;16.13
76007;BMP280;64699;0.000;0.000;2023-05-02T07:50:06;100498.31;;;16.14
76007;BMP280;64699;0.000;0.000;2023-05-02T07:52:31;100494.84;;;16.13
76007;BMP280;64699;0.000;0.000;2023-05-02T07:54:56;100494.84;;;16.13
76007;BMP280;64699;0.000;0.000;2023-05-02T07:57:21;100494.09;;;16.13
76007;BMP280;64699;0.000;0.000;2023-05-02T07:59:47;100483.13;;;16.13
76007;BMP280;64699;0.000;0.000;2023-05-02T08:02:13;100480.38;;;16.13
76007;BMP280;64699;0.000;0.000;2023-05-02T08:04:38;100485.88;;;16.13
76007;BMP280;64699;0.000;0.000;2023-05-02T08:07:03;100477.66;;;16.13
76007;BMP280;64699;0.000;0.000;2023-05-02T08:09:29;100477.66;;;16.13
76007;BMP280;64699;0.000;0.000;2023-05-02T08:11:54;100477.66;;;16.13
76007;BMP280;64699;0.000;0.000;2023-05-02T08:14:19;100472.91;;;16.13
76007;BMP280;64699;0.000;0.000;2023-05-02T08:16:45;100466.69;;;16.13
76007;BMP280;64699;0.000;0.000;2023-05-02T08:19:10;100480.38;;;16.13
76007;BMP280;64699;0.000;0.000;2023-05-02T08:21:35;100483.13;;;16.13
76007;BMP280;64699;0.000;0.000;2023-05-02T08:24:01;100472.16;;;16.13
76007;BMP280;64699;0.000;0.000;2023-05-02T08:26:26;100480.38;;;16.13
76007;BMP280;64699;0.000;0.000;2023-05-02T08:28:52;100473.66;;;16.14
76007;BMP280;64699;0.000;0.000;2023-05-02T08:31:17;100477.66;;;16.13
76007;BMP280;64699;0.000;0.000;2023-05-02T08:33:42;100471.47;;;16.12
76007;BMP280;64699;0.000;0.000;2023-05-02T08:36:11;100478.41;;;16.13
76007;BMP280;64699;0.000;0.000;2023-05-02T08:38:37;100483.13;;;16.13
76007;BMP280;64699;0.000;0.000;2023-05-02T08:41:02;100483.13;;;16.13
76007;BMP280;64699;0.000;0.000;2023-05-02T08:43:27;100494.09;;;16.13
76007;BMP280;64699;0.000;0.000;2023-05-02T08:45:53;100477.66;;;16.13
76007;BMP280;64699;0.000;0.000;2023-05-02T08:48:23;100483.13;;;16.13
76007;BMP280;64699;0.000;0.000;2023-05-02T08:50:49;100484.41;;;16.12
76007;BMP280;64699;0.000;0.000;2023-05-02T08:53:15;100491.88;;;16.11
76007;BMP280;64699;0.000;0.000;2023-05-02T08:55:42;100487.16;;;16.12
76007;BMP280;64699;0.000;0.000;2023-05-02T08:58:07;100492.63;;;16.12
76007;BMP280;64699;0.000;0.000;2023-05-02T09:00:36;100493.38;;;16.12
76007;BMP280;64699;0.000;0.000;2023-05-02T09:03:20;100480.91;;;16.11
76007;BMP280;64699;0.000;0.000;2023-05-02T09:05:50;100485.88;;;16.13
76007;BMP280;64699;0.000;0.000;2023-05-02T09:08:20;100487.16;;;16.12
76007;BMP280;64699;0.000;0.000;2023-05-02T09:10:45;100476.19;;;16.12
76007;BMP280;64699;0.000;0.000;2023-05-02T09:13:26;100483.66;;;16.11
76007;BMP280;64699;0.000;0.000;2023-05-02T09:16:08;100485.66;;;16.11
76007;BMP280;64699;0.000;0.000;2023-05-02T09:18:35;100480.91;;;16.11
76007;BMP280;64699;0.000;0.000;2023-05-02T09:21:08;100493.38;;;16.12
76007;BMP280;64699;0.000;0.000;2023-05-02T09:23:34;100480.19;;;16.11
76007;BMP280;64699;0.000;0.000;2023-05-02T09:26:00;100484.41;;;16.12
76007;BMP280;64699;0.000;0.000;2023-05-02T09:28:38;100492.63;;;16.12
76007;BMP280;64699;0.000;0.000;2023-05-02T09:31:08;100491.88;;;16.11
76007;BMP280;64699;0.000;0.000;2023-05-02T09:33:33;100502.84;;;16.11
76007;BMP280;64699;0.000;0.000;2023-05-02T09:35:59;100492.63;;;16.12
76007;BMP280;64699;0.000;0.000;2023-05-02T09:38:24;100499.34;;;16.11
76007;BMP280;64699;0.000;0.000;2023-05-02T09:40:55;100508.31;;;16.11
76007;BMP280;64699;0.000;0.000;2023-05-02T09:43:20;100496.63;;;16.11
76007;BMP280;64699;0.000;0.000;2023-05-02T09:46:05;100491.88;;;16.11
76007;BMP280;64699;0.000;0.000;2023-05-02T09:48:31;100499.34;;;16.11
76007;BMP280;64699;0.000;0.000;2023-05-02T09:50:57;100502.09;;;16.11
76007;BMP280;64699;0.000;0.000;2023-05-02T09:53:25;100501.34;;;16.10
76007;BMP280;64699;0.000;0.000;2023-05-02T09:56:00;100509.06;;;16.12
76007;BMP280;64699;0.000;0.000;2023-05-02T09:58:26;100504.84;;;16.11
76007;BMP280;64699;0.000;0.000;2023-05-02T10:00:51;100513.06;;;16.11
76007;BMP280;64699;0.000;0.000;2023-05-02T10:03:17;100520.03;;;16.12
76007;BMP280;64699;0.000;0.000;2023-05-02T10:05:46;100511.56;;;16.10
76007;BMP280;64699;0.000;0.000;2023-05-02T10:08:11;100516.53;;;16.11
76007;BMP280;64699;0.000;0.000;2023-05-02T10:10:41;100523.25;;;16.10
76007;BMP280;64699;0.000;0.000;2023-05-02T10:13:10;100517.06;;;16.10
76007;BMP280;64699;0.000;0.000;2023-05-02T10:15:42;100525.28;;;16.10
76007;BMP280;64699;0.000;0.000;2023-05-02T10:18:10;100526.75;;;16.11
76007;BMP280;64699;0.000;0.000;2023-05-02T10:20:40;100525.28;;;16.10
76007;BMP280;64699;0.000;0.000;2023-05-02T10:23:07;100527.25;;;16.09
76007;BMP280;64699;0.000;0.000;2023-05-02T10:25:32;100528.00;;;16.10
76007;BMP280;64699;0.000;0.000;2023-05-02T10:27:58;100530.75;;;16.10
76007;BMP280;64699;0.000;0.000;2023-05-02T10:30:24;100538.22;;;16.09
76007;BMP280;64699;0.000;0.000;2023-05-02T10:32:49;100544.47;;;16.10
76007;BMP280;64699;0.000;0.000;2023-05-02T10:35:15;100538.97;;;16.10
76007;BMP280;64699;0.000;0.000;2023-05-02T10:37:41;100538.22;;;16.09
76007;BMP280;64699;0.000;0.000;2023-05-02T10:40:10;100538.22;;;16.09
76007;BMP280;64699;0.000;0.000;2023-05-02T10:42:37;100536.72;;;16.08
76007;BMP280;64699;0.000;0.000;2023-05-02T10:45:02;100546.94;;;16.08
76007;BMP280;64699;0.000;0.000;2023-05-02T10:47:28;100563.66;;;16.10
76007;BMP280;64699;0.000;0.000;2023-05-02T10:49:55;100553.16;;;16.08
76007;BMP280;64699;0.000;0.000;2023-05-02T10:52:26;100560.16;;;16.09
76007;BMP280;64699;0.000;0.000;2023-05-02T10:55:16;100549.19;;;16.09
76007;BMP280;64699;0.000;0.000;2023-05-02T11:00:25;100565.63;;;16.09
76007;BMP280;64699;0.000;0.000;2023-05-02T11:02:51;100568.84;;;16.08
76007;BMP280;64699;0.000;0.000;2023-05-02T11:05:16;100572.34;;;16.08
76007;BMP280;64699;0.000;0.000;2023-05-02T11:07:42;100579.81;;;16.08
76007;BMP280;64699;0.000;0.000;2023-05-02T11:18:05;100597.53;;;16.07
76007;BMP280;64699;0.000;0.000;2023-05-02T11:20:37;100601.75;;;16.08
76007;BMP280;64699;0.000;0.000;2023-05-02T11:25:41;100613.97;;;16.07
76007;BMP280;64699;0.000;0.000;2023-05-02T11:28:37;100622.97;;;16.07
76007;BMP280;64699;0.000;0.000;2023-05-02T11:30:52;100623.66;;;16.08
76007;BMP280;64699;0.000;0.000;2023-05-02T11:33:17;100637.38;;;16.08
76007;BMP280;64699;0.000;0.000;2023-05-02T11:35:44;100640.88;;;16.08
76007;BMP280;64699;0.000;0.000;2023-05-02T11:38:11;100650.38;;;16.07
76007;BMP280;64699;0.000;0.000;2023-05-02T11:40:36;100660.56;;;16.07
76007;BMP280;64699;0.000;0.000;2023-05-02T11:43:10;100667.53;;;16.08
76007;BMP280;64699;0.000;0.000;2023-05-02T11:45:36;100673.00;;;16.08
76007;BMP280;64699;0.000;0.000;2023-05-02T11:48:03;100673.00;;;16.08
76007;BMP280;64699;0.000;0.000;2023-05-02T11:50:29;100685.25;;;16.07
76007;BMP280;64699;0.000;0.000;2023-05-02T11:52:54;100686.00;;;16.07
76007;BMP280;64699;0.000;0.000;2023-05-02T11:55:20;100682.50;;;16.07
76007;BMP280;64699;0.000;0.000;2023-05-02T11:57:45;100687.97;;;16.07
76007;BMP280;64699;0.000;0.000;2023-05-02T12:00:11;100686.00;;;16.07
76007;BMP280;64699;0.000;0.000;2023-05-02T12:02:40;100692.19;;;16.08
76007;BMP280;64699;0.000;0.000;2023-05-02T12:05:06;100690.19;;;16.08
76007;BMP280;64699;0.000;0.000;2023-05-02T12:10:07;100691.47;;;16.07
76007;BMP280;64699;0.000;0.000;2023-05-02T12:12:32;100703.16;;;16.08
76007;BMP280;64699;0.000;0.000;2023-05-02T12:15:02;100702.44;;;16.07
76007;BMP280;64699;0.000;0.000;2023-05-02T12:17:27;100705.88;;;16.08
76007;BMP280;64699;0.000;0.000;2023-05-02T12:19:53;100705.19;;;16.07
76007;BMP280;64699;0.000;0.000;2023-05-02T12:22:18;100707.91;;;16.07
76007;BMP280;64699;0.000;0.000;2023-05-02T12:24:43;100714.09;;;16.08
76007;BMP280;64699;0.000;0.000;2023-05-02T12:27:12;100718.88;;;16.07
76007;BMP280;64699;0.000;0.000;2023-05-02T12:29:41;100723.09;;;16.08
76007;BMP280;64699;0.000;0.000;2023-05-02T12:32:07;100718.38;;;16.09
76007;BMP280;64699;0.000;0.000;2023-05-02T12:34:33;100727.81;;;16.08
76007;BMP280;64699;0.000;0.000;2023-05-02T12:36:58;100724.38;;;16.07
76007;BMP280;64699;0.000;0.000;2023-05-02T12:39:36;100728.56;;;16.08
76007;BMP280;64699;0.000;0.000;2023-05-02T12:42:35;100733.28;;;16.08
76007;BMP280;64699;0.000;0.000;2023-05-02T12:44:54;100729.34;;;16.09
76007;BMP280;64699;0.000;0.000;2023-05-02T12:47:20;100733.28;;;16.08
76007;BMP280;64699;0.000;0.000;2023-05-02T12:49:52;100730.56;;;16.08
76007;BMP280;64699;0.000;0.000;2023-05-02T12:52:21;100730.56;;;16.08
76007;BMP280;64699;0.000;0.000;2023-05-02T12:54:46;100734.06;;;16.08
76007;BMP280;64699;0.000;0.000;2023-05-02T12:57:24;100732.06;;;16.09
76007;BMP280;64699;0.000;0.000;2023-05-02T12:59:50;100734.56;;;16.07
76007;BMP280;64699;0.000;0.000;2023-05-02T13:02:15;100737.31;;;16.07
76007;BMP280;64699;0.000;0.000;2023-05-02T13:04:41;100740.28;;;16.09
76007;BMP280;64699;0.000;0.000;2023-05-02T13:07:06;100740.06;;;16.07
76007;BMP280;64699;0.000;0.000;2023-05-02T13:09:32;100744.25;;;16.08
76007;BMP280;64699;0.000;0.000;2023-05-02T13:11:57;100740.81;;;16.07
76007;BMP280;64699;0.000;0.000;2023-05-02T13:14:23;100747.00;;;16.08
76007;BMP280;64699;0.000;0.000;2023-05-02T13:16:48;100742.78;;;16.07
76007;BMP280;64699;0.000;0.000;2023-05-02T13:19:13;100740.06;;;16.07
76007;BMP280;64699;0.000;0.000;2023-05-02T13:21:39;100753.75;;;16.07
76007;BMP280;64699;0.000;0.000;2023-05-02T13:24:04;100749.03;;;16.07
76007;BMP280;64699;0.000;0.000;2023-05-02T13:26:30;100753.75;;;16.07
76007;BMP280;64699;0.000;0.000;2023-05-02T13:28:55;100754.50;;;16.07
76007;BMP280;64699;0.000;0.000;2023-05-02T13:31:20;100753.03;;;16.06
76007;BMP280;64699;0.000;0.000;2023-05-02T13:33:46;100753.75;;;16.07
76007;BMP280;64699;0.000;0.000;2023-05-02T13:36:11;100766.72;;;16.06
76007;BMP280;64699;0.000;0.000;2023-05-02T13:38:36;100757.75;;;16.06
76007;BMP280;64699;0.000;0.000;2023-05-02T13:41:01;100762.75;;;16.07
76007;BMP280;64699;0.000;0.000;2023-05-02T13:43:26;100765.47;;;16.07
76007;BMP280;64699;0.000;0.000;2023-05-02T13:45:52;100763.97;;;16.06
76007;BMP280;64699;0.000;0.000;2023-05-02T13:48:17;100770.72;;;16.05
76007;BMP280;64699;0.000;0.000;2023-05-02T13:50:42;100763.22;;;16.06
76007;BMP280;64699;0.000;0.000;2023-05-02T13:53:07;100772.22;;;16.06
76007;BMP280;64699;0.000;0.000;2023-05-02T13:55:32;100765.97;;;16.06
76007;BMP280;64699;0.000;0.000;2023-05-02T13:57:58;100763.22;;;16.06
76007;BMP280;64699;0.000;0.000;2023-05-02T14:00:23;100771.44;;;16.06
76007;BMP280;64699;0.000;0.000;2023-05-02T14:02:48;100774.19;;;16.06
76007;BMP280;64699;0.000;0.000;2023-05-02T14:05:14;100774.94;;;16.06
76007;BMP280;64699;0.000;0.000;2023-05-02T14:07:39;100769.47;;;16.06
76007;BMP280;64699;0.000;0.000;2023-05-02T14:10:04;100774.94;;;16.06
76007;BMP280;64699;0.000;0.000;2023-05-02T14:12:30;100774.19;;;16.06
76007;BMP280;64699;0.000;0.000;2023-05-02T14:14:56;100772.22;;;16.06
76007;BMP280;64699;0.000;0.000;2023-05-02T14:17:21;100776.94;;;16.06
76007;BMP280;64699;0.000;0.000;2023-05-02T14:19:49;100774.94;;;16.06
76007;BMP280;64699;0.000;0.000;2023-05-02T14:22:14;100771.44;;;16.06
76007;BMP280;64699;0.000;0.000;2023-05-02T14:24:40;100779.66;;;16.06
76007;BMP280;64699;0.000;0.000;2023-05-02T14:27:05;100780.44;;;16.06
76007;BMP280;64699;0.000;0.000;2023-05-02T14:29:31;100778.94;;;16.05
76007;BMP280;64699;0.000;0.000;2023-05-02T14:31:56;100778.94;;;16.05
76007;BMP280;64699;0.000;0.000;2023-05-02T14:34:22;100781.69;;;16.05
76007;BMP280;64699;0.000;0.000;2023-05-02T14:36:50;100782.41;;;16.06